Thunder radar more information blitzortung!


Rain radar more information rain snow radar


altri nostri siti meteo:

PomeziameteoStazione ufficiale di Pomezia

MeteopomeziaSito sulle condizioni meteo



Nessuna attenzione particolare richiesta.    Non ci sono allerte meteo

Report METAR

   
LIMP - Parma
Dati ricevuti: 15-09-2019 11:50
Sereno  
Sereno  
   Vento: Variabile 3.7 km/h
Vento: Variabile 3.7 km/h
Temperatura: 24°C
P.to Rugiada: 19°C
Umidita: 74%
Barometro: 1026 hPa
Visibilita: oltre 10 km
dettagli cloud: Sereno
LIMP 150950Z VRB02KT CAVOK 24/19 Q1026
LIPE - Bologna
Dati ricevuti: 15-09-2019 12:20
Sereno  
Sereno  
   Vento: Variabile 3.7 km/h
Vento: Variabile 3.7 km/h
Temperatura: 27°C
Indice di Calore: 27°C
P.to Rugiada: 14°C
Umidita: 45%
Barometro: 1025 hPa
Visibilita: oltre 10 km
dettagli cloud: Sereno
LIPE 151020Z VRB02KT CAVOK 27/14 Q1025
LIPO - Brescia/Montichi
Dati ricevuti: 15-09-2019 11:50
Molto nuvoloso  
Molto nuvoloso  
   Vento: SW 5.6 km/h
Vento: SW 5.6 km/h
Temperatura: 24°C
P.to Rugiada: 18°C
Umidita: 69%
Barometro: 1026 hPa
Nuvole: Molto nuvoloso
Visibilita: 8 km
dettagli cloud: Molto nuvoloso 6000 ft
LIPO 150950Z 23003KT 8000 BKN060 24/18 Q1026
LIPF - Ferrara
Dati ricevuti: 15-09-2019 11:55
Sereno  
Sereno  
   Vento: Variabile calma
Vento: Variabile calma
Temperatura: 27°C
Indice di Calore: 28°C
P.to Rugiada: 19°C
Umidita: 62%
Barometro: 1025 hPa
Visibilita: oltre 10 km
dettagli cloud: Sereno
LIPF 150955Z /////KT CAVOK 27/19 Q1025
LIPL - Ghedi
Dati ricevuti: 15-09-2019 11:55
Molto nuvoloso  
Molto nuvoloso  
   Vento: W 3.7 km/h
Vento: W 3.7 km/h
Temperatura: 24°C
P.to Rugiada: 19°C
Umidita: 74%
Barometro: 1025 hPa
Nuvole: Molto nuvoloso
Visibilita: 8 km
dettagli cloud: Molto nuvoloso 6000 ft
LIPL 150955Z 25002KT 8000 BKN060 24/19 Q1025 RMK BKN VIS MIN 8000 WIND THR31 18002KT WIND THR13 30001KT BLU
LIVC - Monte Cimone
Dati ricevuti: 14-09-2019 20:55
DATI Obsoleti
Sereno  
Sereno  
   Vento: NE 24.1 km/h
Vento: NE 24.1 km/h
Temperatura: 12°C
P.to Rugiada: 2°C
Umidita: 51%
Barometro: 1036 hPa
Visibilita: oltre 10 km
dettagli cloud: Sereno
LIVC 141855Z 04013KT CAVOK 12/02 Q1036
LIMS - Piacenza
Dati ricevuti: 15-09-2019 11:55
Sereno  
Sereno  
   Vento: NE 7.4 km/h
Vento: NE 7.4 km/h
Temperatura: 26°C
P.to Rugiada: 19°C
Umidita: 65%
Barometro: 1025 hPa
Visibilita: oltre 10 km
dettagli cloud: Sereno
LIMS 150955Z 06004KT 310V100 CAVOK 26/19 Q1025
LIMT - Passo della Cisa
Dati ricevuti: 13-04-2018 12:55
DATI Obsoleti
Nebbia  
Nebbia  
   Vento: S 14.8 km/h
Vento: S 14.8 km/h
Temperatura: 6°C
Temperatura Vento: 3°C
P.to Rugiada: 4°C
Umidita: 87%
Barometro: 1013 hPa
Visibilita: 0 km
dettagli cloud: Coperto
LIMT 131055Z 20008KT 0000 FG VV/// 06/04 Q1013 RMK MON INVIS VAL INVIS VIS MIN 0000
LIPU - Padova
Dati ricevuti: 15-09-2019 08:00
DATI Obsoleti
Sereno  
Sereno  
   Vento: Variabile 3.7 km/h
Vento: Variabile 3.7 km/h
Temperatura: 19°C
P.to Rugiada: 16°C
Umidita: 83%
Barometro: 1026 hPa
Visibilita: oltre 10 km
dettagli cloud: Sereno
LIPU 150600Z VRB02KT CAVOK 19/16 Q1026

Script sviluppato da  Saratoga-weather.org Adattato per il modello da  Weerstation Leuven

Strumentazione usata:

Stazione meteo
Davis VP2

Programma gestore dati meteo
WVIEW

Server per i dati meteo
Pc-WDS5

Davis VP2

WVIEW

Pc-WDS5